sensor_id;sensor_type;location;lat;lon;timestamp;P1;durP1;ratioP1;P2;durP2;ratioP2
8938;SDS011;4504;48.810;9.172;2023-11-19T00:01:00;125.47;;;5.30;;
8938;SDS011;4504;48.810;9.172;2023-11-19T00:03:30;125.03;;;5.70;;
8938;SDS011;4504;48.810;9.172;2023-11-19T00:05:58;123.90;;;5.47;;
8938;SDS011;4504;48.810;9.172;2023-11-19T00:08:25;123.03;;;5.72;;
8938;SDS011;4504;48.810;9.172;2023-11-19T00:10:52;123.15;;;5.10;;
8938;SDS011;4504;48.810;9.172;2023-11-19T00:13:19;122.53;;;5.30;;
8938;SDS011;4504;48.810;9.172;2023-11-19T00:15:46;123.20;;;5.60;;
8938;SDS011;4504;48.810;9.172;2023-11-19T00:18:15;121.82;;;5.20;;
8938;SDS011;4504;48.810;9.172;2023-11-19T00:20:42;121.97;;;5.78;;
8938;SDS011;4504;48.810;9.172;2023-11-19T00:23:10;122.25;;;4.97;;
8938;SDS011;4504;48.810;9.172;2023-11-19T00:25:37;121.38;;;4.90;;
8938;SDS011;4504;48.810;9.172;2023-11-19T00:28:05;121.65;;;5.10;;
8938;SDS011;4504;48.810;9.172;2023-11-19T00:30:32;119.63;;;5.07;;
8938;SDS011;4504;48.810;9.172;2023-11-19T00:32:59;119.63;;;4.75;;
8938;SDS011;4504;48.810;9.172;2023-11-19T00:35:27;118.00;;;4.70;;
8938;SDS011;4504;48.810;9.172;2023-11-19T00:37:54;119.85;;;5.10;;
8938;SDS011;4504;48.810;9.172;2023-11-19T00:40:21;119.88;;;4.60;;
8938;SDS011;4504;48.810;9.172;2023-11-19T00:42:48;120.28;;;5.20;;
8938;SDS011;4504;48.810;9.172;2023-11-19T00:45:15;118.80;;;4.90;;
8938;SDS011;4504;48.810;9.172;2023-11-19T00:47:42;118.53;;;4.45;;
8938;SDS011;4504;48.810;9.172;2023-11-19T00:50:10;117.55;;;4.40;;
8938;SDS011;4504;48.810;9.172;2023-11-19T00:52:39;117.82;;;4.78;;
8938;SDS011;4504;48.810;9.172;2023-11-19T00:55:06;119.22;;;4.80;;
8938;SDS011;4504;48.810;9.172;2023-11-19T00:57:34;117.63;;;4.43;;
8938;SDS011;4504;48.810;9.172;2023-11-19T01:00:01;117.60;;;4.50;;
8938;SDS011;4504;48.810;9.172;2023-11-19T01:02:32;119.13;;;4.50;;
8938;SDS011;4504;48.810;9.172;2023-11-19T01:04:59;118.63;;;4.70;;
8938;SDS011;4504;48.810;9.172;2023-11-19T01:07:27;118.82;;;4.55;;
8938;SDS011;4504;48.810;9.172;2023-11-19T01:09:55;118.68;;;4.30;;
8938;SDS011;4504;48.810;9.172;2023-11-19T01:12:22;118.32;;;4.32;;
8938;SDS011;4504;48.810;9.172;2023-11-19T01:14:49;118.43;;;4.60;;
8938;SDS011;4504;48.810;9.172;2023-11-19T01:17:16;118.07;;;4.28;;
8938;SDS011;4504;48.810;9.172;2023-11-19T01:19:43;118.18;;;4.18;;
8938;SDS011;4504;48.810;9.172;2023-11-19T01:22:10;118.50;;;4.22;;
8938;SDS011;4504;48.810;9.172;2023-11-19T01:24:37;117.53;;;4.13;;
8938;SDS011;4504;48.810;9.172;2023-11-19T01:27:06;118.95;;;4.15;;
8938;SDS011;4504;48.810;9.172;2023-11-19T01:29:33;118.32;;;4.13;;
8938;SDS011;4504;48.810;9.172;2023-11-19T01:32:00;118.07;;;4.20;;
8938;SDS011;4504;48.810;9.172;2023-11-19T01:34:27;117.25;;;4.15;;
8938;SDS011;4504;48.810;9.172;2023-11-19T01:36:54;117.68;;;4.30;;
8938;SDS011;4504;48.810;9.172;2023-11-19T01:39:21;117.07;;;4.00;;
8938;SDS011;4504;48.810;9.172;2023-11-19T01:41:48;118.30;;;4.10;;
8938;SDS011;4504;48.810;9.172;2023-11-19T01:44:17;117.97;;;4.20;;
8938;SDS011;4504;48.810;9.172;2023-11-19T01:46:44;118.18;;;4.05;;
8938;SDS011;4504;48.810;9.172;2023-11-19T01:49:14;117.97;;;4.00;;
8938;SDS011;4504;48.810;9.172;2023-11-19T01:51:42;117.55;;;4.05;;
8938;SDS011;4504;48.810;9.172;2023-11-19T01:54:09;117.35;;;3.92;;
8938;SDS011;4504;48.810;9.172;2023-11-19T01:56:36;116.22;;;4.07;;
8938;SDS011;4504;48.810;9.172;2023-11-19T01:59:07;118.15;;;3.85;;
8938;SDS011;4504;48.810;9.172;2023-11-19T02:01:40;116.82;;;3.80;;
8938;SDS011;4504;48.810;9.172;2023-11-19T02:04:07;117.88;;;4.20;;
8938;SDS011;4504;48.810;9.172;2023-11-19T02:06:36;116.47;;;3.95;;
8938;SDS011;4504;48.810;9.172;2023-11-19T02:09:06;117.13;;;3.70;;
8938;SDS011;4504;48.810;9.172;2023-11-19T02:11:35;118.05;;;3.92;;
8938;SDS011;4504;48.810;9.172;2023-11-19T02:14:02;116.60;;;3.60;;
8938;SDS011;4504;48.810;9.172;2023-11-19T02:16:29;117.82;;;4.30;;
8938;SDS011;4504;48.810;9.172;2023-11-19T02:18:58;116.03;;;3.83;;
8938;SDS011;4504;48.810;9.172;2023-11-19T02:21:25;117.53;;;4.22;;
8938;SDS011;4504;48.810;9.172;2023-11-19T02:23:52;117.82;;;3.92;;
8938;SDS011;4504;48.810;9.172;2023-11-19T02:26:23;117.82;;;3.70;;
8938;SDS011;4504;48.810;9.172;2023-11-19T02:28:56;117.63;;;3.70;;
8938;SDS011;4504;48.810;9.172;2023-11-19T02:31:23;117.97;;;3.75;;
8938;SDS011;4504;48.810;9.172;2023-11-19T02:33:52;117.43;;;3.70;;
8938;SDS011;4504;48.810;9.172;2023-11-19T02:36:20;116.47;;;3.90;;
8938;SDS011;4504;48.810;9.172;2023-11-19T02:38:47;117.30;;;4.05;;
8938;SDS011;4504;48.810;9.172;2023-11-19T02:41:15;115.63;;;3.85;;
8938;SDS011;4504;48.810;9.172;2023-11-19T02:43:42;117.88;;;4.10;;
8938;SDS011;4504;48.810;9.172;2023-11-19T02:46:10;117.57;;;3.70;;
8938;SDS011;4504;48.810;9.172;2023-11-19T02:48:37;117.93;;;4.32;;
8938;SDS011;4504;48.810;9.172;2023-11-19T02:51:05;117.13;;;4.00;;
8938;SDS011;4504;48.810;9.172;2023-11-19T02:53:34;117.35;;;3.90;;
8938;SDS011;4504;48.810;9.172;2023-11-19T02:56:02;116.53;;;3.78;;
8938;SDS011;4504;48.810;9.172;2023-11-19T02:58:42;117.07;;;4.00;;
8938;SDS011;4504;48.810;9.172;2023-11-19T03:01:12;117.57;;;4.45;;
8938;SDS011;4504;48.810;9.172;2023-11-19T03:03:48;116.88;;;3.58;;
8938;SDS011;4504;48.810;9.172;2023-11-19T03:06:19;117.90;;;3.65;;
8938;SDS011;4504;48.810;9.172;2023-11-19T03:08:47;117.43;;;3.80;;
8938;SDS011;4504;48.810;9.172;2023-11-19T03:11:14;117.70;;;3.80;;
8938;SDS011;4504;48.810;9.172;2023-11-19T03:13:41;117.38;;;3.70;;
8938;SDS011;4504;48.810;9.172;2023-11-19T03:16:08;117.18;;;3.80;;
8938;SDS011;4504;48.810;9.172;2023-11-19T03:18:38;116.03;;;3.72;;
8938;SDS011;4504;48.810;9.172;2023-11-19T03:21:05;117.65;;;3.80;;
8938;SDS011;4504;48.810;9.172;2023-11-19T03:23:33;116.25;;;3.88;;
8938;SDS011;4504;48.810;9.172;2023-11-19T03:25:59;117.28;;;4.05;;
8938;SDS011;4504;48.810;9.172;2023-11-19T03:28:28;117.97;;;4.20;;
8938;SDS011;4504;48.810;9.172;2023-11-19T03:30:56;116.43;;;3.58;;
8938;SDS011;4504;48.810;9.172;2023-11-19T03:33:23;117.07;;;3.80;;
8938;SDS011;4504;48.810;9.172;2023-11-19T03:35:54;114.72;;;3.60;;
8938;SDS011;4504;48.810;9.172;2023-11-19T03:38:22;118.07;;;3.90;;
8938;SDS011;4504;48.810;9.172;2023-11-19T03:40:50;115.15;;;3.53;;
8938;SDS011;4504;48.810;9.172;2023-11-19T03:43:17;114.80;;;3.67;;
8938;SDS011;4504;48.810;9.172;2023-11-19T03:45:45;117.22;;;3.67;;
8938;SDS011;4504;48.810;9.172;2023-11-19T03:48:13;117.28;;;3.70;;
8938;SDS011;4504;48.810;9.172;2023-11-19T03:50:42;115.32;;;3.60;;
8938;SDS011;4504;48.810;9.172;2023-11-19T03:53:11;116.72;;;3.80;;
8938;SDS011;4504;48.810;9.172;2023-11-19T03:55:38;116.18;;;3.78;;
8938;SDS011;4504;48.810;9.172;2023-11-19T03:58:05;117.07;;;3.72;;
8938;SDS011;4504;48.810;9.172;2023-11-19T04:00:32;115.85;;;3.58;;
8938;SDS011;4504;48.810;9.172;2023-11-19T04:02:59;117.13;;;3.55;;
8938;SDS011;4504;48.810;9.172;2023-11-19T04:05:26;117.07;;;3.60;;
8938;SDS011;4504;48.810;9.172;2023-11-19T04:07:53;116.20;;;3.70;;
8938;SDS011;4504;48.810;9.172;2023-11-19T04:10:22;117.13;;;3.60;;
8938;SDS011;4504;48.810;9.172;2023-11-19T04:12:49;116.82;;;3.70;;
8938;SDS011;4504;48.810;9.172;2023-11-19T04:15:16;117.13;;;3.75;;
8938;SDS011;4504;48.810;9.172;2023-11-19T04:17:43;116.72;;;3.65;;
8938;SDS011;4504;48.810;9.172;2023-11-19T04:20:11;116.93;;;3.70;;
8938;SDS011;4504;48.810;9.172;2023-11-19T04:22:39;117.38;;;3.78;;
8938;SDS011;4504;48.810;9.172;2023-11-19T04:25:06;118.75;;;4.00;;
8938;SDS011;4504;48.810;9.172;2023-11-19T04:27:35;117.10;;;3.90;;
8938;SDS011;4504;48.810;9.172;2023-11-19T04:30:03;115.90;;;3.67;;
8938;SDS011;4504;48.810;9.172;2023-11-19T04:32:30;116.53;;;3.70;;
8938;SDS011;4504;48.810;9.172;2023-11-19T04:34:57;117.85;;;3.90;;
8938;SDS011;4504;48.810;9.172;2023-11-19T04:37:24;116.28;;;3.70;;
8938;SDS011;4504;48.810;9.172;2023-11-19T04:39:51;117.25;;;3.78;;
8938;SDS011;4504;48.810;9.172;2023-11-19T04:42:18;117.50;;;3.70;;
8938;SDS011;4504;48.810;9.172;2023-11-19T04:44:47;117.03;;;3.70;;
8938;SDS011;4504;48.810;9.172;2023-11-19T04:47:14;116.43;;;3.65;;
8938;SDS011;4504;48.810;9.172;2023-11-19T04:49:41;117.70;;;3.70;;
8938;SDS011;4504;48.810;9.172;2023-11-19T04:52:09;117.18;;;3.80;;
8938;SDS011;4504;48.810;9.172;2023-11-19T04:54:40;117.47;;;3.63;;
8938;SDS011;4504;48.810;9.172;2023-11-19T04:57:08;117.32;;;3.65;;
8938;SDS011;4504;48.810;9.172;2023-11-19T04:59:36;116.22;;;3.80;;
8938;SDS011;4504;48.810;9.172;2023-11-19T05:02:04;117.53;;;3.80;;
8938;SDS011;4504;48.810;9.172;2023-11-19T05:04:31;116.07;;;3.67;;
8938;SDS011;4504;48.810;9.172;2023-11-19T05:06:58;117.07;;;3.70;;
8938;SDS011;4504;48.810;9.172;2023-11-19T05:09:25;117.53;;;3.72;;
8938;SDS011;4504;48.810;9.172;2023-11-19T05:11:52;117.18;;;3.70;;
8938;SDS011;4504;48.810;9.172;2023-11-19T05:14:19;117.90;;;3.80;;
8938;SDS011;4504;48.810;9.172;2023-11-19T05:16:47;116.40;;;3.75;;
8938;SDS011;4504;48.810;9.172;2023-11-19T05:19:15;117.43;;;3.80;;
8938;SDS011;4504;48.810;9.172;2023-11-19T05:21:42;116.72;;;3.50;;
8938;SDS011;4504;48.810;9.172;2023-11-19T05:24:09;116.18;;;3.60;;
8938;SDS011;4504;48.810;9.172;2023-11-19T05:26:37;116.72;;;3.58;;
8938;SDS011;4504;48.810;9.172;2023-11-19T05:29:04;117.15;;;3.60;;
8938;SDS011;4504;48.810;9.172;2023-11-19T05:31:31;116.72;;;3.63;;
8938;SDS011;4504;48.810;9.172;2023-11-19T05:33:58;117.55;;;3.50;;
8938;SDS011;4504;48.810;9.172;2023-11-19T05:36:27;116.82;;;3.60;;
8938;SDS011;4504;48.810;9.172;2023-11-19T05:38:54;115.50;;;3.60;;
8938;SDS011;4504;48.810;9.172;2023-11-19T05:41:21;116.53;;;3.60;;
8938;SDS011;4504;48.810;9.172;2023-11-19T05:43:48;117.07;;;3.70;;
8938;SDS011;4504;48.810;9.172;2023-11-19T05:46:15;117.22;;;3.70;;
8938;SDS011;4504;48.810;9.172;2023-11-19T05:48:42;117.03;;;3.58;;
8938;SDS011;4504;48.810;9.172;2023-11-19T05:51:11;116.68;;;3.60;;
8938;SDS011;4504;48.810;9.172;2023-11-19T05:53:40;116.10;;;3.88;;
8938;SDS011;4504;48.810;9.172;2023-11-19T05:56:08;117.47;;;3.80;;
8938;SDS011;4504;48.810;9.172;2023-11-19T05:58:35;116.22;;;3.60;;
8938;SDS011;4504;48.810;9.172;2023-11-19T06:01:02;116.32;;;3.60;;
8938;SDS011;4504;48.810;9.172;2023-11-19T06:03:32;116.57;;;3.70;;
8938;SDS011;4504;48.810;9.172;2023-11-19T06:05:59;117.07;;;3.60;;
8938;SDS011;4504;48.810;9.172;2023-11-19T06:08:26;117.15;;;3.55;;
8938;SDS011;4504;48.810;9.172;2023-11-19T06:10:56;117.22;;;3.60;;
8938;SDS011;4504;48.810;9.172;2023-11-19T06:13:23;115.70;;;3.40;;
8938;SDS011;4504;48.810;9.172;2023-11-19T06:15:50;116.90;;;3.55;;
8938;SDS011;4504;48.810;9.172;2023-11-19T06:18:17;116.78;;;3.90;;
8938;SDS011;4504;48.810;9.172;2023-11-19T06:20:45;116.70;;;3.58;;
8938;SDS011;4504;48.810;9.172;2023-11-19T06:23:12;117.30;;;3.70;;
8938;SDS011;4504;48.810;9.172;2023-11-19T06:25:39;116.18;;;3.70;;
8938;SDS011;4504;48.810;9.172;2023-11-19T06:28:08;116.97;;;3.42;;
8938;SDS011;4504;48.810;9.172;2023-11-19T06:30:35;116.68;;;3.40;;
8938;SDS011;4504;48.810;9.172;2023-11-19T06:33:02;116.88;;;3.60;;
8938;SDS011;4504;48.810;9.172;2023-11-19T06:35:29;117.30;;;3.60;;
8938;SDS011;4504;48.810;9.172;2023-11-19T06:38:01;116.82;;;3.60;;
8938;SDS011;4504;48.810;9.172;2023-11-19T06:40:29;117.20;;;3.90;;
8938;SDS011;4504;48.810;9.172;2023-11-19T06:42:56;116.57;;;3.53;;
8938;SDS011;4504;48.810;9.172;2023-11-19T06:45:25;116.97;;;4.03;;
8938;SDS011;4504;48.810;9.172;2023-11-19T06:47:52;116.53;;;3.80;;
8938;SDS011;4504;48.810;9.172;2023-11-19T06:50:19;117.15;;;3.70;;
8938;SDS011;4504;48.810;9.172;2023-11-19T06:52:46;116.43;;;3.40;;
8938;SDS011;4504;48.810;9.172;2023-11-19T06:55:13;116.68;;;3.80;;
8938;SDS011;4504;48.810;9.172;2023-11-19T06:57:41;116.13;;;3.60;;
8938;SDS011;4504;48.810;9.172;2023-11-19T07:00:08;116.97;;;3.80;;
8938;SDS011;4504;48.810;9.172;2023-11-19T07:02:38;116.82;;;3.60;;
8938;SDS011;4504;48.810;9.172;2023-11-19T07:05:05;116.13;;;3.40;;
8938;SDS011;4504;48.810;9.172;2023-11-19T07:07:33;116.13;;;3.38;;
8938;SDS011;4504;48.810;9.172;2023-11-19T07:10:00;115.47;;;3.70;;
8938;SDS011;4504;48.810;9.172;2023-11-19T07:12:29;116.53;;;3.50;;
8938;SDS011;4504;48.810;9.172;2023-11-19T07:14:56;116.57;;;3.40;;
8938;SDS011;4504;48.810;9.172;2023-11-19T07:17:23;116.72;;;3.70;;
8938;SDS011;4504;48.810;9.172;2023-11-19T07:19:51;116.32;;;3.50;;
8938;SDS011;4504;48.810;9.172;2023-11-19T07:22:19;117.07;;;3.65;;
8938;SDS011;4504;48.810;9.172;2023-11-19T07:24:46;116.57;;;3.40;;
8938;SDS011;4504;48.810;9.172;2023-11-19T07:27:13;116.93;;;3.75;;
8938;SDS011;4504;48.810;9.172;2023-11-19T07:29:42;115.93;;;3.50;;
8938;SDS011;4504;48.810;9.172;2023-11-19T07:32:10;117.20;;;3.50;;
8938;SDS011;4504;48.810;9.172;2023-11-19T07:34:38;116.18;;;3.40;;
8938;SDS011;4504;48.810;9.172;2023-11-19T07:37:07;115.63;;;4.60;;
8938;SDS011;4504;48.810;9.172;2023-11-19T07:39:34;115.45;;;3.85;;
8938;SDS011;4504;48.810;9.172;2023-11-19T07:42:03;116.63;;;3.42;;
8938;SDS011;4504;48.810;9.172;2023-11-19T07:44:30;116.88;;;3.83;;
8938;SDS011;4504;48.810;9.172;2023-11-19T07:46:57;115.93;;;3.80;;
8938;SDS011;4504;48.810;9.172;2023-11-19T07:49:24;115.60;;;3.60;;
8938;SDS011;4504;48.810;9.172;2023-11-19T07:51:51;116.95;;;3.70;;
8938;SDS011;4504;48.810;9.172;2023-11-19T07:54:20;116.30;;;3.70;;
8938;SDS011;4504;48.810;9.172;2023-11-19T07:56:47;117.25;;;3.45;;
8938;SDS011;4504;48.810;9.172;2023-11-19T07:59:15;116.68;;;4.00;;
8938;SDS011;4504;48.810;9.172;2023-11-19T08:01:42;119.40;;;3.70;;
8938;SDS011;4504;48.810;9.172;2023-11-19T08:04:08;116.95;;;3.60;;
8938;SDS011;4504;48.810;9.172;2023-11-19T08:06:36;116.05;;;3.47;;
8938;SDS011;4504;48.810;9.172;2023-11-19T08:09:03;116.63;;;3.30;;
8938;SDS011;4504;48.810;9.172;2023-11-19T08:11:32;115.20;;;3.35;;
8938;SDS011;4504;48.810;9.172;2023-11-19T08:13:59;116.47;;;3.47;;
8938;SDS011;4504;48.810;9.172;2023-11-19T08:16:26;116.63;;;3.45;;
8938;SDS011;4504;48.810;9.172;2023-11-19T08:18:53;116.20;;;3.30;;
8938;SDS011;4504;48.810;9.172;2023-11-19T08:21:20;116.57;;;3.50;;
8938;SDS011;4504;48.810;9.172;2023-11-19T08:23:48;119.75;;;3.50;;
8938;SDS011;4504;48.810;9.172;2023-11-19T08:26:15;115.93;;;3.70;;
8938;SDS011;4504;48.810;9.172;2023-11-19T08:28:43;116.13;;;3.30;;
8938;SDS011;4504;48.810;9.172;2023-11-19T08:31:10;116.13;;;3.33;;
8938;SDS011;4504;48.810;9.172;2023-11-19T08:33:37;115.47;;;3.30;;
8938;SDS011;4504;48.810;9.172;2023-11-19T08:36:04;116.07;;;3.20;;
8938;SDS011;4504;48.810;9.172;2023-11-19T08:38:32;114.80;;;3.20;;
8938;SDS011;4504;48.810;9.172;2023-11-19T08:40:59;116.15;;;3.20;;
8938;SDS011;4504;48.810;9.172;2023-11-19T08:43:26;115.93;;;3.30;;
8938;SDS011;4504;48.810;9.172;2023-11-19T08:45:54;115.93;;;3.40;;
8938;SDS011;4504;48.810;9.172;2023-11-19T08:48:21;116.40;;;3.33;;
8938;SDS011;4504;48.810;9.172;2023-11-19T08:50:48;116.13;;;3.40;;
8938;SDS011;4504;48.810;9.172;2023-11-19T08:53:15;115.82;;;3.38;;
8938;SDS011;4504;48.810;9.172;2023-11-19T08:55:42;115.72;;;3.50;;
8938;SDS011;4504;48.810;9.172;2023-11-19T08:58:09;116.18;;;3.35;;
8938;SDS011;4504;48.810;9.172;2023-11-19T09:00:36;116.07;;;3.22;;
8938;SDS011;4504;48.810;9.172;2023-11-19T09:03:04;116.28;;;3.70;;
8938;SDS011;4504;48.810;9.172;2023-11-19T09:05:31;116.90;;;3.30;;
8938;SDS011;4504;48.810;9.172;2023-11-19T09:07:58;115.70;;;3.25;;
8938;SDS011;4504;48.810;9.172;2023-11-19T09:10:25;115.82;;;3.40;;
8938;SDS011;4504;48.810;9.172;2023-11-19T09:12:54;116.30;;;3.65;;
8938;SDS011;4504;48.810;9.172;2023-11-19T09:15:21;116.25;;;3.20;;
8938;SDS011;4504;48.810;9.172;2023-11-19T09:17:48;114.72;;;3.30;;
8938;SDS011;4504;48.810;9.172;2023-11-19T09:20:16;115.28;;;3.45;;
8938;SDS011;4504;48.810;9.172;2023-11-19T09:22:43;117.13;;;3.30;;
8938;SDS011;4504;48.810;9.172;2023-11-19T09:25:11;115.43;;;3.42;;
8938;SDS011;4504;48.810;9.172;2023-11-19T09:27:42;116.22;;;3.50;;
8938;SDS011;4504;48.810;9.172;2023-11-19T09:30:09;115.90;;;3.20;;
8938;SDS011;4504;48.810;9.172;2023-11-19T09:32:36;115.43;;;3.17;;
8938;SDS011;4504;48.810;9.172;2023-11-19T09:35:04;116.97;;;3.80;;
8938;SDS011;4504;48.810;9.172;2023-11-19T09:37:33;115.32;;;3.20;;
8938;SDS011;4504;48.810;9.172;2023-11-19T09:40:00;114.53;;;3.78;;
8938;SDS011;4504;48.810;9.172;2023-11-19T09:42:27;116.72;;;3.50;;
8938;SDS011;4504;48.810;9.172;2023-11-19T09:44:54;124.82;;;4.95;;
8938;SDS011;4504;48.810;9.172;2023-11-19T09:47:24;116.03;;;3.63;;
8938;SDS011;4504;48.810;9.172;2023-11-19T09:49:55;115.00;;;3.35;;
8938;SDS011;4504;48.810;9.172;2023-11-19T09:52:22;115.22;;;3.40;;
8938;SDS011;4504;48.810;9.172;2023-11-19T09:54:51;116.97;;;3.22;;
8938;SDS011;4504;48.810;9.172;2023-11-19T09:57:18;115.43;;;3.53;;
8938;SDS011;4504;48.810;9.172;2023-11-19T09:59:45;115.88;;;3.20;;
8938;SDS011;4504;48.810;9.172;2023-11-19T10:02:13;115.78;;;3.30;;
8938;SDS011;4504;48.810;9.172;2023-11-19T10:04:42;115.88;;;3.50;;
8938;SDS011;4504;48.810;9.172;2023-11-19T10:07:10;115.32;;;3.15;;
8938;SDS011;4504;48.810;9.172;2023-11-19T10:09:37;114.60;;;3.20;;
8938;SDS011;4504;48.810;9.172;2023-11-19T10:12:06;117.13;;;3.45;;
8938;SDS011;4504;48.810;9.172;2023-11-19T10:14:33;114.97;;;3.60;;
8938;SDS011;4504;48.810;9.172;2023-11-19T10:17:18;115.72;;;3.10;;
8938;SDS011;4504;48.810;9.172;2023-11-19T10:19:45;114.85;;;2.92;;
8938;SDS011;4504;48.810;9.172;2023-11-19T10:22:12;115.90;;;3.50;;
8938;SDS011;4504;48.810;9.172;2023-11-19T10:24:42;115.72;;;3.10;;
8938;SDS011;4504;48.810;9.172;2023-11-19T10:27:09;115.15;;;3.20;;
8938;SDS011;4504;48.810;9.172;2023-11-19T10:29:38;116.18;;;3.40;;
8938;SDS011;4504;48.810;9.172;2023-11-19T10:32:05;115.82;;;3.63;;
8938;SDS011;4504;48.810;9.172;2023-11-19T10:34:34;116.07;;;3.20;;
8938;SDS011;4504;48.810;9.172;2023-11-19T10:37:02;116.50;;;3.50;;
8938;SDS011;4504;48.810;9.172;2023-11-19T10:39:33;115.82;;;3.33;;
8938;SDS011;4504;48.810;9.172;2023-11-19T10:42:19;116.40;;;3.20;;
8938;SDS011;4504;48.810;9.172;2023-11-19T10:44:46;116.53;;;3.53;;
8938;SDS011;4504;48.810;9.172;2023-11-19T10:47:13;114.95;;;3.20;;
8938;SDS011;4504;48.810;9.172;2023-11-19T10:49:46;113.43;;;3.15;;
8938;SDS011;4504;48.810;9.172;2023-11-19T10:52:14;115.22;;;3.20;;
8938;SDS011;4504;48.810;9.172;2023-11-19T10:54:45;117.72;;;3.45;;
8938;SDS011;4504;48.810;9.172;2023-11-19T10:57:19;115.38;;;3.67;;
8938;SDS011;4504;48.810;9.172;2023-11-19T10:59:47;117.05;;;3.60;;
8938;SDS011;4504;48.810;9.172;2023-11-19T11:02:19;115.13;;;3.15;;
8938;SDS011;4504;48.810;9.172;2023-11-19T11:04:52;116.22;;;3.38;;
8938;SDS011;4504;48.810;9.172;2023-11-19T11:07:20;115.57;;;3.35;;
8938;SDS011;4504;48.810;9.172;2023-11-19T11:09:51;118.20;;;3.53;;
8938;SDS011;4504;48.810;9.172;2023-11-19T11:12:20;117.55;;;3.60;;
8938;SDS011;4504;48.810;9.172;2023-11-19T11:14:49;115.22;;;3.33;;
8938;SDS011;4504;48.810;9.172;2023-11-19T11:17:17;115.63;;;3.30;;
8938;SDS011;4504;48.810;9.172;2023-11-19T11:19:44;116.13;;;3.53;;
8938;SDS011;4504;48.810;9.172;2023-11-19T11:22:13;116.60;;;3.65;;
8938;SDS011;4504;48.810;9.172;2023-11-19T11:24:54;116.70;;;3.55;;
8938;SDS011;4504;48.810;9.172;2023-11-19T11:27:43;116.40;;;3.35;;
8938;SDS011;4504;48.810;9.172;2023-11-19T11:30:41;115.88;;;3.35;;
8938;SDS011;4504;48.810;9.172;2023-11-19T11:33:22;115.97;;;3.22;;
8938;SDS011;4504;48.810;9.172;2023-11-19T11:36:00;116.30;;;3.40;;
8938;SDS011;4504;48.810;9.172;2023-11-19T11:38:39;115.88;;;3.28;;
8938;SDS011;4504;48.810;9.172;2023-11-19T11:41:17;114.85;;;3.00;;
8938;SDS011;4504;48.810;9.172;2023-11-19T11:43:46;116.47;;;3.75;;
8938;SDS011;4504;48.810;9.172;2023-11-19T11:49:26;115.13;;;3.10;;
8938;SDS011;4504;48.810;9.172;2023-11-19T11:52:01;115.90;;;3.08;;
8938;SDS011;4504;48.810;9.172;2023-11-19T11:54:33;116.82;;;3.30;;
8938;SDS011;4504;48.810;9.172;2023-11-19T11:57:06;115.63;;;3.40;;
8938;SDS011;4504;48.810;9.172;2023-11-19T11:59:47;116.00;;;3.33;;
8938;SDS011;4504;48.810;9.172;2023-11-19T12:02:16;115.88;;;3.35;;
8938;SDS011;4504;48.810;9.172;2023-11-19T12:04:46;115.05;;;3.33;;
8938;SDS011;4504;48.810;9.172;2023-11-19T12:07:15;114.20;;;3.40;;
8938;SDS011;4504;48.810;9.172;2023-11-19T12:09:48;113.38;;;3.15;;
8938;SDS011;4504;48.810;9.172;2023-11-19T12:12:19;115.13;;;3.45;;
8938;SDS011;4504;48.810;9.172;2023-11-19T12:15:03;114.72;;;3.30;;
8938;SDS011;4504;48.810;9.172;2023-11-19T12:17:37;115.32;;;3.17;;
8938;SDS011;4504;48.810;9.172;2023-11-19T12:20:09;115.28;;;3.20;;
8938;SDS011;4504;48.810;9.172;2023-11-19T12:22:37;115.47;;;3.28;;
8938;SDS011;4504;48.810;9.172;2023-11-19T12:25:07;114.50;;;2.90;;
8938;SDS011;4504;48.810;9.172;2023-11-19T12:27:35;115.13;;;4.00;;
8938;SDS011;4504;48.810;9.172;2023-11-19T12:30:03;116.75;;;3.97;;
8938;SDS011;4504;48.810;9.172;2023-11-19T12:32:37;115.07;;;3.20;;
8938;SDS011;4504;48.810;9.172;2023-11-19T12:35:05;114.97;;;3.72;;
8938;SDS011;4504;48.810;9.172;2023-11-19T12:37:40;114.70;;;3.40;;
8938;SDS011;4504;48.810;9.172;2023-11-19T12:40:13;114.47;;;3.10;;
8938;SDS011;4504;48.810;9.172;2023-11-19T12:42:41;114.53;;;3.00;;
8938;SDS011;4504;48.810;9.172;2023-11-19T12:45:08;113.30;;;3.10;;
8938;SDS011;4504;48.810;9.172;2023-11-19T12:47:37;113.90;;;3.20;;
8938;SDS011;4504;48.810;9.172;2023-11-19T12:50:06;114.88;;;3.50;;
8938;SDS011;4504;48.810;9.172;2023-11-19T12:52:34;113.50;;;3.08;;
8938;SDS011;4504;48.810;9.172;2023-11-19T12:55:02;113.43;;;2.90;;
8938;SDS011;4504;48.810;9.172;2023-11-19T12:57:38;113.60;;;3.00;;
8938;SDS011;4504;48.810;9.172;2023-11-19T13:00:06;114.30;;;3.08;;
8938;SDS011;4504;48.810;9.172;2023-11-19T13:02:46;113.82;;;2.88;;
8938;SDS011;4504;48.810;9.172;2023-11-19T13:05:26;114.10;;;2.95;;
8938;SDS011;4504;48.810;9.172;2023-11-19T13:08:03;114.65;;;3.20;;
8938;SDS011;4504;48.810;9.172;2023-11-19T13:10:32;114.35;;;3.10;;
8938;SDS011;4504;48.810;9.172;2023-11-19T13:13:05;114.40;;;3.10;;
8938;SDS011;4504;48.810;9.172;2023-11-19T13:15:34;114.45;;;3.40;;
8938;SDS011;4504;48.810;9.172;2023-11-19T13:18:02;119.50;;;3.25;;
8938;SDS011;4504;48.810;9.172;2023-11-19T13:20:29;114.00;;;3.10;;
8938;SDS011;4504;48.810;9.172;2023-11-19T13:22:57;113.68;;;3.00;;
8938;SDS011;4504;48.810;9.172;2023-11-19T13:25:25;114.07;;;2.97;;
8938;SDS011;4504;48.810;9.172;2023-11-19T13:27:52;116.00;;;3.63;;
8938;SDS011;4504;48.810;9.172;2023-11-19T13:30:21;113.93;;;3.20;;
8938;SDS011;4504;48.810;9.172;2023-11-19T13:32:49;113.78;;;3.10;;
8938;SDS011;4504;48.810;9.172;2023-11-19T13:35:16;114.18;;;3.20;;
8938;SDS011;4504;48.810;9.172;2023-11-19T13:37:43;114.80;;;3.38;;
8938;SDS011;4504;48.810;9.172;2023-11-19T13:40:11;115.38;;;3.47;;
8938;SDS011;4504;48.810;9.172;2023-11-19T13:42:40;113.25;;;3.20;;
8938;SDS011;4504;48.810;9.172;2023-11-19T13:45:08;114.07;;;3.00;;
8938;SDS011;4504;48.810;9.172;2023-11-19T13:47:38;114.57;;;3.50;;
8938;SDS011;4504;48.810;9.172;2023-11-19T13:50:08;114.88;;;3.35;;
8938;SDS011;4504;48.810;9.172;2023-11-19T13:52:36;114.55;;;3.30;;
8938;SDS011;4504;48.810;9.172;2023-11-19T13:55:05;114.38;;;3.30;;
8938;SDS011;4504;48.810;9.172;2023-11-19T13:57:33;114.28;;;3.10;;
8938;SDS011;4504;48.810;9.172;2023-11-19T14:00:01;113.07;;;3.38;;
8938;SDS011;4504;48.810;9.172;2023-11-19T14:02:34;113.97;;;3.60;;
8938;SDS011;4504;48.810;9.172;2023-11-19T14:05:03;114.80;;;3.30;;
8938;SDS011;4504;48.810;9.172;2023-11-19T14:07:31;113.18;;;3.53;;
8938;SDS011;4504;48.810;9.172;2023-11-19T14:09:58;114.72;;;3.20;;
8938;SDS011;4504;48.810;9.172;2023-11-19T14:12:25;113.78;;;2.90;;
8938;SDS011;4504;48.810;9.172;2023-11-19T14:14:52;113.85;;;3.30;;
8938;SDS011;4504;48.810;9.172;2023-11-19T14:17:19;114.90;;;3.08;;
8938;SDS011;4504;48.810;9.172;2023-11-19T14:19:46;113.82;;;3.15;;
8938;SDS011;4504;48.810;9.172;2023-11-19T14:22:15;114.22;;;2.95;;
8938;SDS011;4504;48.810;9.172;2023-11-19T14:24:42;115.10;;;3.20;;
8938;SDS011;4504;48.810;9.172;2023-11-19T14:27:09;114.38;;;3.15;;
8938;SDS011;4504;48.810;9.172;2023-11-19T14:29:36;114.13;;;3.03;;
8938;SDS011;4504;48.810;9.172;2023-11-19T14:32:05;116.05;;;3.50;;
8938;SDS011;4504;48.810;9.172;2023-11-19T14:34:32;115.13;;;3.35;;
8938;SDS011;4504;48.810;9.172;2023-11-19T14:36:59;113.72;;;3.10;;
8938;SDS011;4504;48.810;9.172;2023-11-19T14:39:28;115.75;;;3.22;;
8938;SDS011;4504;48.810;9.172;2023-11-19T14:41:56;119.40;;;3.38;;
8938;SDS011;4504;48.810;9.172;2023-11-19T14:44:26;114.95;;;3.20;;
8938;SDS011;4504;48.810;9.172;2023-11-19T14:46:54;115.07;;;3.28;;
8938;SDS011;4504;48.810;9.172;2023-11-19T14:49:21;114.13;;;3.10;;
8938;SDS011;4504;48.810;9.172;2023-11-19T14:51:49;114.90;;;3.10;;
8938;SDS011;4504;48.810;9.172;2023-11-19T14:54:16;114.63;;;3.00;;
8938;SDS011;4504;48.810;9.172;2023-11-19T14:56:44;114.97;;;3.40;;
8938;SDS011;4504;48.810;9.172;2023-11-19T14:59:11;113.22;;;3.60;;